Reklaw, Texas
Current Conditions -  °F | °C
As of 8:55 PM on Sunday 21 Dec 2014 (Local Time) from KJSO Reporting Station
Overcast Overcast  
Wind Chill: 50°   Ceiling: 2300
Heat Index: 50°   Visibility: 10mi
Dew Point: 47°   Wind: 6mph
Humidity: 89%   Direction: 160°SSE
Pressure: 29.89"   Gusts: NA
Location:  31.86°N, 94.98°W
Report Text: KJSO 220255Z AUTO 16005KT 10SM BKN023 OVC027 10/08 A2989 RMK AO2 T01010083
Loading
Personal Weather Stations






























Interactive Weather Map New forecast layout! Learn more

10-Day Weather Forecast

Advertisements
Track Severe Weather on mobile